Time,TemperatureF,DewpointF,PressureIn,WindDirection,WindDirectionDegrees,WindSpeedMPH,WindSpeedGustMPH,Humidity,HourlyPrecipIn,Conditions,Clouds,dailyrainin,SoftwareType,DateUTC
2017-07-20 00:01:00,73.2,68.1,30.07,WNW,290,0.0,0.0,84,0.00,,,0.00,Wunderground v.1.15,2017-07-20 04:01:00,
2017-07-20 00:07:00,73.1,68.0,30.07,WNW,290,0.0,0.0,84,0.00,,,0.00,Wunderground v.1.15,2017-07-20 04:07:00,
2017-07-20 00:12:00,73.0,67.9,30.07,WNW,290,0.0,0.0,84,0.00,,,0.00,Wunderground v.1.15,2017-07-20 04:12:00,
2017-07-20 00:17:00,72.9,67.8,30.07,WNW,290,0.0,0.0,84,0.00,,,0.00,Wunderground v.1.15,2017-07-20 04:17:00,
2017-07-20 00:24:00,72.8,67.7,30.07,WNW,290,0.0,0.0,84,0.00,,,0.00,Wunderground v.1.15,2017-07-20 04:24:00,
2017-07-20 00:29:00,72.8,67.7,30.07,WNW,290,0.0,0.0,84,0.00,,,0.00,Wunderground v.1.15,2017-07-20 04:29:00,
2017-07-20 00:35:00,72.7,67.6,30.07,WNW,290,0.0,0.0,84,0.00,,,0.00,Wunderground v.1.15,2017-07-20 04:35:00,
2017-07-20 00:40:00,72.7,67.6,30.07,WNW,290,0.0,0.0,84,0.00,,,0.00,Wunderground v.1.15,2017-07-20 04:40:00,
2017-07-20 00:46:00,72.6,67.8,30.07,WNW,290,0.0,0.0,85,0.00,,,0.00,Wunderground v.1.15,2017-07-20 04:46:00,
2017-07-20 00:51:00,72.6,67.8,30.08,WNW,290,0.0,0.0,85,0.00,,,0.00,Wunderground v.1.15,2017-07-20 04:51:00,
2017-07-20 00:57:00,72.4,67.6,30.08,WNW,290,0.0,0.0,85,0.00,,,0.00,Wunderground v.1.15,2017-07-20 04:57:00,
2017-07-20 01:02:00,72.2,67.8,30.08,WNW,290,0.0,2.0,86,0.00,,,0.00,Wunderground v.1.15,2017-07-20 05:02:00,
2017-07-20 01:08:00,71.8,67.7,30.08,WNW,290,0.0,2.0,87,0.00,,,0.00,Wunderground v.1.15,2017-07-20 05:08:00,
2017-07-20 01:13:00,71.7,68.0,30.08,WNW,290,1.0,1.0,88,0.00,,,0.00,Wunderground v.1.15,2017-07-20 05:13:00,
2017-07-20 01:19:00,71.7,68.0,30.08,WNW,290,0.0,1.0,88,0.00,,,0.00,Wunderground v.1.15,2017-07-20 05:19:00,
2017-07-20 01:24:00,71.8,68.1,30.08,WNW,290,0.0,0.0,88,0.00,,,0.00,Wunderground v.1.15,2017-07-20 05:24:00,
2017-07-20 01:29:00,71.8,67.7,30.07,WNW,290,0.0,0.0,87,0.00,,,0.00,Wunderground v.1.15,2017-07-20 05:29:00,
2017-07-20 01:34:00,71.8,67.7,30.07,WNW,290,0.0,0.0,87,0.00,,,0.00,Wunderground v.1.15,2017-07-20 05:34:00,
2017-07-20 01:40:00,71.7,67.6,30.08,WNW,290,0.0,0.0,87,0.00,,,0.00,Wunderground v.1.15,2017-07-20 05:40:00,
2017-07-20 01:45:00,71.6,67.5,30.08,WNW,290,0.0,0.0,87,0.00,,,0.00,Wunderground v.1.15,2017-07-20 05:45:00,
2017-07-20 01:50:00,71.4,67.3,30.08,WNW,290,0.0,0.0,87,0.00,,,0.00,Wunderground v.1.15,2017-07-20 05:50:00,
2017-07-20 01:55:00,71.3,67.2,30.07,WNW,290,0.0,0.0,87,0.00,,,0.00,Wunderground v.1.15,2017-07-20 05:55:00,
2017-07-20 02:01:00,71.2,67.5,30.08,WNW,290,0.0,0.0,88,0.00,,,0.00,Wunderground v.1.15,2017-07-20 06:01:00,
2017-07-20 02:06:00,71.0,67.3,30.08,WNW,290,0.0,0.0,88,0.00,,,0.00,Wunderground v.1.15,2017-07-20 06:06:00,
2017-07-20 02:11:00,70.8,67.4,30.07,WNW,290,0.0,0.0,89,0.00,,,0.00,Wunderground v.1.15,2017-07-20 06:11:00,
2017-07-20 02:16:00,70.7,67.3,30.07,WNW,290,0.0,0.0,89,0.00,,,0.00,Wunderground v.1.15,2017-07-20 06:16:00,
2017-07-20 02:21:00,70.6,67.2,30.07,WNW,290,0.0,0.0,89,0.00,,,0.00,Wunderground v.1.15,2017-07-20 06:21:00,
2017-07-20 02:26:00,70.6,67.5,30.07,WNW,290,0.0,0.0,90,0.00,,,0.00,Wunderground v.1.15,2017-07-20 06:26:00,
2017-07-20 02:31:00,70.5,67.4,30.07,WNW,290,0.0,0.0,90,0.00,,,0.00,Wunderground v.1.15,2017-07-20 06:31:00,
2017-07-20 02:36:00,70.5,67.4,30.06,WNW,290,0.0,0.0,90,0.00,,,0.00,Wunderground v.1.15,2017-07-20 06:36:00,
2017-07-20 02:41:00,70.4,67.3,30.06,WNW,290,0.0,0.0,90,0.00,,,0.00,Wunderground v.1.15,2017-07-20 06:41:00,
2017-07-20 02:46:00,70.4,67.3,30.06,WNW,290,0.0,0.0,90,0.00,,,0.00,Wunderground v.1.15,2017-07-20 06:46:00,
2017-07-20 02:52:00,70.3,67.2,30.06,WNW,290,0.0,0.0,90,0.00,,,0.00,Wunderground v.1.15,2017-07-20 06:52:00,
2017-07-20 02:57:00,70.1,67.0,30.05,WNW,290,0.0,0.0,90,0.00,,,0.00,Wunderground v.1.15,2017-07-20 06:57:00,
2017-07-20 03:02:00,70.1,67.0,30.05,WNW,290,0.0,0.0,90,0.00,,,0.00,Wunderground v.1.15,2017-07-20 07:02:00,
2017-07-20 03:07:00,70.1,67.3,30.05,WNW,290,0.0,0.0,91,0.00,,,0.00,Wunderground v.1.15,2017-07-20 07:07:00,
2017-07-20 03:12:00,69.9,67.2,30.05,WNW,290,0.0,0.0,91,0.00,,,0.00,Wunderground v.1.15,2017-07-20 07:12:00,
2017-07-20 03:17:00,69.8,67.1,30.05,WNW,290,0.0,0.0,91,0.00,,,0.00,Wunderground v.1.15,2017-07-20 07:17:00,
2017-07-20 03:22:00,69.8,67.1,30.05,WNW,290,0.0,0.0,91,0.00,,,0.00,Wunderground v.1.15,2017-07-20 07:22:00,
2017-07-20 03:27:00,69.7,67.0,30.05,WNW,290,0.0,0.0,91,0.00,,,0.00,Wunderground v.1.15,2017-07-20 07:27:00,
2017-07-20 03:32:00,69.7,67.3,30.05,WNW,290,0.0,0.0,92,0.00,,,0.00,Wunderground v.1.15,2017-07-20 07:32:00,
2017-07-20 03:37:00,69.7,67.3,30.04,WNW,290,0.0,0.0,92,0.00,,,0.00,Wunderground v.1.15,2017-07-20 07:37:00,
2017-07-20 03:42:00,69.7,67.3,30.04,WNW,290,0.0,0.0,92,0.00,,,0.00,Wunderground v.1.15,2017-07-20 07:42:00,
2017-07-20 03:47:00,69.6,67.2,30.04,WNW,290,0.0,0.0,92,0.00,,,0.00,Wunderground v.1.15,2017-07-20 07:47:00,
2017-07-20 03:52:00,69.7,67.3,30.04,WNW,290,0.0,0.0,92,0.00,,,0.00,Wunderground v.1.15,2017-07-20 07:52:00,
2017-07-20 03:57:00,69.6,67.2,30.04,WNW,290,0.0,0.0,92,0.00,,,0.00,Wunderground v.1.15,2017-07-20 07:57:00,
2017-07-20 04:02:00,69.6,67.2,30.04,WNW,290,0.0,0.0,92,0.00,,,0.00,Wunderground v.1.15,2017-07-20 08:02:00,
2017-07-20 04:07:00,69.6,67.2,30.04,WNW,290,0.0,0.0,92,0.00,,,0.00,Wunderground v.1.15,2017-07-20 08:07:00,
2017-07-20 04:12:00,69.7,67.6,30.03,WNW,290,0.0,0.0,93,0.00,,,0.00,Wunderground v.1.15,2017-07-20 08:12:00,
2017-07-20 04:17:00,69.8,67.7,30.03,WNW,290,0.0,0.0,93,0.00,,,0.00,Wunderground v.1.15,2017-07-20 08:17:00,
2017-07-20 04:22:00,69.8,67.7,30.03,WNW,290,0.0,0.0,93,0.00,,,0.00,Wunderground v.1.15,2017-07-20 08:22:00,
2017-07-20 04:23:00,69.7,67.6,30.03,WNW,290,0.0,0.0,93,0.00,,,0.00,Wunderground v.1.15,2017-07-20 08:23:00,
2017-07-20 04:29:00,69.6,67.5,30.03,WNW,290,0.0,0.0,93,0.00,,,0.00,Wunderground v.1.15,2017-07-20 08:29:00,
2017-07-20 04:34:00,69.7,67.6,30.04,WNW,290,0.0,0.0,93,0.00,,,0.00,Wunderground v.1.15,2017-07-20 08:34:00,
2017-07-20 04:39:00,69.5,67.4,30.04,WNW,290,0.0,0.0,93,0.00,,,0.00,Wunderground v.1.15,2017-07-20 08:39:00,
2017-07-20 04:44:00,69.4,67.3,30.04,WNW,290,0.0,0.0,93,0.00,,,0.00,Wunderground v.1.15,2017-07-20 08:44:00,
2017-07-20 04:49:00,69.4,67.3,30.04,WNW,290,0.0,0.0,93,0.00,,,0.00,Wunderground v.1.15,2017-07-20 08:49:00,
2017-07-20 04:54:00,69.6,67.8,30.03,WNW,290,0.0,0.0,94,0.00,,,0.00,Wunderground v.1.15,2017-07-20 08:54:00,
2017-07-20 04:59:00,69.8,68.0,30.03,WNW,290,0.0,0.0,94,0.00,,,0.00,Wunderground v.1.15,2017-07-20 08:59:00,
2017-07-20 05:04:00,69.9,68.1,30.03,WNW,290,0.0,0.0,94,0.00,,,0.00,Wunderground v.1.15,2017-07-20 09:04:00,
2017-07-20 05:09:00,70.1,68.3,30.02,WNW,290,0.0,0.0,94,0.00,,,0.00,Wunderground v.1.15,2017-07-20 09:09:00,
2017-07-20 05:14:00,70.3,68.8,30.01,WNW,290,0.0,0.0,95,0.00,,,0.00,Wunderground v.1.15,2017-07-20 09:14:00,
2017-07-20 05:19:00,70.5,69.0,30.01,WNW,290,0.0,0.0,95,0.00,,,0.00,Wunderground v.1.15,2017-07-20 09:19:00,
2017-07-20 05:24:00,70.4,68.6,30.02,WNW,290,0.0,0.0,94,0.00,,,0.00,Wunderground v.1.15,2017-07-20 09:24:00,
2017-07-20 05:29:00,70.4,68.9,30.01,WNW,290,0.0,0.0,95,0.00,,,0.00,Wunderground v.1.15,2017-07-20 09:29:00,
2017-07-20 05:34:00,70.2,68.4,30.01,WNW,290,0.0,0.0,94,0.00,,,0.00,Wunderground v.1.15,2017-07-20 09:34:00,
2017-07-20 05:39:00,70.3,68.8,30.01,WNW,290,0.0,0.0,95,0.00,,,0.00,Wunderground v.1.15,2017-07-20 09:39:00,
2017-07-20 05:44:00,70.3,68.8,30.01,WNW,290,0.0,0.0,95,0.00,,,0.00,Wunderground v.1.15,2017-07-20 09:44:00,
2017-07-20 05:49:00,70.3,68.8,30.01,WNW,290,0.0,0.0,95,0.00,,,0.00,Wunderground v.1.15,2017-07-20 09:49:00,
2017-07-20 05:54:00,70.3,68.8,30.01,WNW,290,0.0,0.0,95,0.00,,,0.00,Wunderground v.1.15,2017-07-20 09:54:00,
2017-07-20 05:59:00,70.3,68.8,30.01,WNW,290,0.0,0.0,95,0.00,,,0.00,Wunderground v.1.15,2017-07-20 09:59:00,
2017-07-20 06:04:00,70.2,68.7,30.01,WNW,290,0.0,0.0,95,0.00,,,0.00,Wunderground v.1.15,2017-07-20 10:04:00,
2017-07-20 06:09:00,69.8,68.3,30.01,WNW,290,0.0,0.0,95,0.00,,,0.00,Wunderground v.1.15,2017-07-20 10:09:00,
2017-07-20 06:14:00,69.6,68.1,30.01,WNW,290,0.0,0.0,95,0.00,,,0.00,Wunderground v.1.15,2017-07-20 10:14:00,
2017-07-20 06:19:00,69.6,68.1,30.01,WNW,290,0.0,0.0,95,0.00,,,0.00,Wunderground v.1.15,2017-07-20 10:19:00,
2017-07-20 06:24:00,69.8,68.3,30.00,WNW,290,0.0,0.0,95,0.00,,,0.00,Wunderground v.1.15,2017-07-20 10:24:00,
2017-07-20 06:29:00,69.9,68.4,30.01,WNW,290,0.0,0.0,95,0.00,,,0.00,Wunderground v.1.15,2017-07-20 10:29:00,
2017-07-20 06:31:00,70.0,68.5,30.01,WNW,290,0.0,0.0,95,0.00,,,0.00,Wunderground v.1.15,2017-07-20 10:31:00,
2017-07-20 06:35:00,70.1,68.6,30.01,WNW,290,0.0,0.0,95,0.00,,,0.00,Wunderground v.1.15,2017-07-20 10:35:00,
2017-07-20 06:40:00,70.3,68.8,30.01,WNW,290,0.0,0.0,95,0.00,,,0.00,Wunderground v.1.15,2017-07-20 10:40:00,
2017-07-20 06:45:00,70.4,68.9,30.02,WNW,290,0.0,0.0,95,0.00,,,0.00,Wunderground v.1.15,2017-07-20 10:45:00,
2017-07-20 06:50:00,70.5,69.0,30.03,WNW,290,0.0,0.0,95,0.00,,,0.00,Wunderground v.1.15,2017-07-20 10:50:00,
2017-07-20 06:55:00,70.5,69.0,30.03,WNW,290,0.0,0.0,95,0.00,,,0.00,Wunderground v.1.15,2017-07-20 10:55:00,
2017-07-20 07:00:00,70.6,69.1,30.03,WNW,290,0.0,0.0,95,0.00,,,0.00,Wunderground v.1.15,2017-07-20 11:00:00,
2017-07-20 07:05:00,70.8,69.3,30.03,WNW,290,0.0,0.0,95,0.00,,,0.00,Wunderground v.1.15,2017-07-20 11:05:00,
2017-07-20 07:10:00,71.0,69.5,30.03,WNW,290,0.0,0.0,95,0.00,,,0.00,Wunderground v.1.15,2017-07-20 11:10:00,
2017-07-20 07:15:00,71.1,69.6,30.04,WNW,290,0.0,0.0,95,0.00,,,0.00,Wunderground v.1.15,2017-07-20 11:15:00,
2017-07-20 07:20:00,71.2,69.7,30.04,WNW,290,0.0,0.0,95,0.00,,,0.00,Wunderground v.1.15,2017-07-20 11:20:00,
2017-07-20 07:25:00,71.3,69.8,30.05,WNW,290,0.0,0.0,95,0.00,,,0.00,Wunderground v.1.15,2017-07-20 11:25:00,
2017-07-20 07:30:00,71.4,69.9,30.06,WNW,290,0.0,0.0,95,0.00,,,0.00,Wunderground v.1.15,2017-07-20 11:30:00,
2017-07-20 07:35:00,71.7,70.2,30.06,WNW,290,0.0,0.0,95,0.00,,,0.00,Wunderground v.1.15,2017-07-20 11:35:00,
2017-07-20 07:40:00,71.9,70.4,30.07,WNW,290,0.0,0.0,95,0.00,,,0.00,Wunderground v.1.15,2017-07-20 11:40:00,
2017-07-20 07:45:00,72.2,70.7,30.07,WNW,290,0.0,0.0,95,0.00,,,0.00,Wunderground v.1.15,2017-07-20 11:45:00,
2017-07-20 07:50:00,72.6,71.1,30.07,WNW,290,0.0,0.0,95,0.00,,,0.00,Wunderground v.1.15,2017-07-20 11:50:00,
2017-07-20 07:55:00,73.0,71.5,30.07,WNW,290,0.0,0.0,95,0.00,,,0.00,Wunderground v.1.15,2017-07-20 11:55:00,
2017-07-20 08:00:00,73.4,71.9,30.07,West,259,2.0,2.0,95,0.00,,,0.00,Wunderground v.1.15,2017-07-20 12:00:00,
2017-07-20 08:05:00,74.0,72.2,30.08,West,261,1.0,2.0,94,0.00,,,0.00,Wunderground v.1.15,2017-07-20 12:05:00,
2017-07-20 08:10:00,74.6,72.4,30.08,West,259,2.0,2.0,93,0.00,,,0.00,Wunderground v.1.15,2017-07-20 12:10:00,
2017-07-20 08:15:00,75.2,72.7,30.08,WSW,252,1.0,4.0,92,0.00,,,0.00,Wunderground v.1.15,2017-07-20 12:15:00,
2017-07-20 08:20:00,75.8,73.0,30.08,WNW,288,1.0,3.0,91,0.00,,,0.00,Wunderground v.1.15,2017-07-20 12:20:00,
2017-07-20 08:25:00,76.4,72.9,30.08,WSW,242,1.0,3.0,89,0.00,,,0.00,Wunderground v.1.15,2017-07-20 12:25:00,
2017-07-20 08:30:00,76.8,73.3,30.08,WSW,242,2.0,2.0,89,0.00,,,0.00,Wunderground v.1.15,2017-07-20 12:30:00,
2017-07-20 08:35:00,76.9,72.7,30.09,SSE,167,1.0,4.0,87,0.00,,,0.00,Wunderground v.1.15,2017-07-20 12:35:00,
2017-07-20 08:40:00,77.1,72.9,30.09,West,265,4.0,4.0,87,0.00,,,0.00,Wunderground v.1.15,2017-07-20 12:40:00,
2017-07-20 08:45:00,77.1,72.9,30.09,WSW,243,2.0,5.0,87,0.00,,,0.00,Wunderground v.1.15,2017-07-20 12:45:00,
2017-07-20 08:50:00,77.3,73.1,30.08,WSW,243,0.0,1.0,87,0.00,,,0.00,Wunderground v.1.15,2017-07-20 12:50:00,
2017-07-20 08:55:00,77.6,73.1,30.08,SW,229,0.0,2.0,86,0.00,,,0.00,Wunderground v.1.15,2017-07-20 12:55:00,
2017-07-20 09:00:00,78.0,73.5,30.08,SW,229,0.0,1.0,86,0.00,,,0.00,Wunderground v.1.15,2017-07-20 13:00:00,
2017-07-20 09:05:00,78.5,74.0,30.08,SW,229,0.0,1.0,86,0.00,,,0.00,Wunderground v.1.15,2017-07-20 13:05:00,
2017-07-20 09:10:00,78.9,74.0,30.09,SW,229,0.0,0.0,85,0.00,,,0.00,Wunderground v.1.15,2017-07-20 13:10:00,
2017-07-20 09:15:00,79.4,74.1,30.09,SW,229,0.0,0.0,84,0.00,,,0.00,Wunderground v.1.15,2017-07-20 13:15:00,
2017-07-20 09:20:00,79.6,74.0,30.09,SW,229,2.0,2.0,83,0.00,,,0.00,Wunderground v.1.15,2017-07-20 13:20:00,
2017-07-20 09:25:00,79.5,74.2,30.09,SW,229,0.0,3.0,84,0.00,,,0.00,Wunderground v.1.15,2017-07-20 13:25:00,
2017-07-20 09:30:00,79.6,74.3,30.09,SW,229,0.0,1.0,84,0.00,,,0.00,Wunderground v.1.15,2017-07-20 13:30:00,
2017-07-20 09:35:00,79.6,74.3,30.09,WSW,250,2.0,3.0,84,0.00,,,0.00,Wunderground v.1.15,2017-07-20 13:35:00,
2017-07-20 09:40:00,79.7,74.1,30.09,WSW,240,1.0,2.0,83,0.00,,,0.00,Wunderground v.1.15,2017-07-20 13:40:00,
2017-07-20 09:45:00,79.8,74.2,30.09,West,259,2.0,3.0,83,0.00,,,0.00,Wunderground v.1.15,2017-07-20 13:45:00,
2017-07-20 09:50:00,79.9,73.9,30.09,WSW,243,0.0,2.0,82,0.00,,,0.00,Wunderground v.1.15,2017-07-20 13:50:00,
2017-07-20 09:52:00,80.0,74.4,30.09,WSW,243,0.0,2.0,83,0.00,,,0.00,Wunderground v.1.15,2017-07-20 13:52:00,
2017-07-20 09:57:00,80.4,74.8,30.09,SSE,159,0.0,3.0,83,0.00,,,0.00,Wunderground v.1.15,2017-07-20 13:57:00,
2017-07-20 10:03:00,80.9,75.2,30.08,SE,126,0.0,2.0,83,0.00,,,0.00,Wunderground v.1.15,2017-07-20 14:03:00,
2017-07-20 10:08:00,81.1,75.1,30.08,SSW,192,0.0,3.0,82,0.00,,,0.00,Wunderground v.1.15,2017-07-20 14:08:00,
2017-07-20 10:13:00,81.0,75.0,30.09,WSW,238,0.0,4.0,82,0.00,,,0.00,Wunderground v.1.15,2017-07-20 14:13:00,
2017-07-20 10:19:00,81.0,75.3,30.09,South,169,1.0,4.0,83,0.00,,,0.00,Wunderground v.1.15,2017-07-20 14:19:00,
2017-07-20 10:24:00,81.0,75.0,30.09,West,270,2.0,3.0,82,0.00,,,0.00,Wunderground v.1.15,2017-07-20 14:24:00,
2017-07-20 10:29:00,81.0,75.0,30.09,WSW,248,3.0,3.0,82,0.00,,,0.00,Wunderground v.1.15,2017-07-20 14:29:00,
2017-07-20 10:34:00,81.0,75.0,30.10,SW,229,2.0,3.0,82,0.00,,,0.00,Wunderground v.1.15,2017-07-20 14:34:00,
2017-07-20 10:39:00,80.9,74.5,30.10,SW,221,2.0,5.0,81,0.00,,,0.00,Wunderground v.1.15,2017-07-20 14:39:00,
2017-07-20 10:44:00,80.8,74.4,30.10,West,274,2.0,5.0,81,0.00,,,0.00,Wunderground v.1.15,2017-07-20 14:44:00,
2017-07-20 10:49:00,80.9,74.9,30.09,WSW,246,2.0,5.0,82,0.00,,,0.00,Wunderground v.1.15,2017-07-20 14:49:00,
2017-07-20 10:54:00,80.8,74.4,30.10,WSW,250,4.0,7.0,81,0.00,,,0.00,Wunderground v.1.15,2017-07-20 14:54:00,
2017-07-20 10:59:00,80.8,74.4,30.10,West,259,3.0,7.0,81,0.00,,,0.00,Wunderground v.1.15,2017-07-20 14:59:00,
2017-07-20 11:04:00,80.9,74.5,30.09,SW,215,3.0,3.0,81,0.00,,,0.00,Wunderground v.1.15,2017-07-20 15:04:00,
2017-07-20 11:09:00,81.0,74.6,30.09,West,265,1.0,4.0,81,0.00,,,0.00,Wunderground v.1.15,2017-07-20 15:09:00,
2017-07-20 11:14:00,81.1,74.3,30.09,WSW,255,0.0,4.0,80,0.00,,,0.00,Wunderground v.1.15,2017-07-20 15:14:00,
2017-07-20 11:19:00,81.2,74.4,30.08,WSW,248,0.0,4.0,80,0.00,,,0.00,Wunderground v.1.15,2017-07-20 15:19:00,
2017-07-20 11:24:00,81.2,74.4,30.09,SW,214,4.0,5.0,80,0.00,,,0.00,Wunderground v.1.15,2017-07-20 15:24:00,
2017-07-20 11:29:00,81.3,74.5,30.08,SSW,202,2.0,5.0,80,0.00,,,0.00,Wunderground v.1.15,2017-07-20 15:29:00,
2017-07-20 11:34:00,81.4,74.6,30.08,WSW,238,2.0,6.0,80,0.00,,,0.00,Wunderground v.1.15,2017-07-20 15:34:00,
2017-07-20 11:39:00,81.7,74.5,30.08,West,261,2.0,7.0,79,0.00,,,0.00,Wunderground v.1.15,2017-07-20 15:39:00,
2017-07-20 11:44:00,82.1,75.3,30.08,WSW,250,2.0,6.0,80,0.00,,,0.00,Wunderground v.1.15,2017-07-20 15:44:00,
2017-07-20 11:49:00,82.6,75.0,30.08,SW,234,2.0,2.0,78,0.00,,,0.00,Wunderground v.1.15,2017-07-20 15:49:00,
2017-07-20 11:54:00,83.0,75.4,30.07,SW,227,3.0,5.0,78,0.00,,,0.00,Wunderground v.1.15,2017-07-20 15:54:00,
2017-07-20 12:00:00,83.3,75.3,30.07,South,188,4.0,4.0,77,0.00,,,0.00,Wunderground v.1.15,2017-07-20 16:00:00,
2017-07-20 12:05:00,83.5,75.5,30.07,SW,227,2.0,6.0,77,0.00,,,0.00,Wunderground v.1.15,2017-07-20 16:05:00,
2017-07-20 12:10:00,83.8,75.4,30.07,WSW,239,1.0,3.0,76,0.00,,,0.00,Wunderground v.1.15,2017-07-20 16:10:00,
2017-07-20 12:15:00,84.4,76.0,30.06,West,273,4.0,7.0,76,0.00,,,0.00,Wunderground v.1.15,2017-07-20 16:15:00,
2017-07-20 12:20:00,84.5,75.7,30.06,WSW,251,6.0,6.0,75,0.00,,,0.00,Wunderground v.1.15,2017-07-20 16:20:00,
2017-07-20 12:25:00,84.6,75.8,30.06,SE,136,5.0,6.0,75,0.00,,,0.00,Wunderground v.1.15,2017-07-20 16:25:00,
2017-07-20 12:30:00,84.7,75.9,30.06,SSW,197,6.0,6.0,75,0.00,,,0.00,Wunderground v.1.15,2017-07-20 16:30:00,
2017-07-20 12:35:00,84.9,76.1,30.06,West,274,6.0,6.0,75,0.00,,,0.00,Wunderground v.1.15,2017-07-20 16:35:00,
2017-07-20 12:40:00,85.2,76.4,30.06,SW,219,2.0,3.0,75,0.00,,,0.00,Wunderground v.1.15,2017-07-20 16:40:00,
2017-07-20 12:45:00,85.3,76.5,30.06,SW,236,3.0,5.0,75,0.00,,,0.00,Wunderground v.1.15,2017-07-20 16:45:00,
2017-07-20 12:50:00,85.2,76.0,30.06,WSW,246,5.0,6.0,74,0.00,,,0.00,Wunderground v.1.15,2017-07-20 16:50:00,
2017-07-20 12:55:00,85.3,76.5,30.06,SE,146,3.0,6.0,75,0.00,,,0.00,Wunderground v.1.15,2017-07-20 16:55:00,
2017-07-20 13:00:00,85.9,77.1,30.06,SW,232,5.0,6.0,75,0.00,,,0.00,Wunderground v.1.15,2017-07-20 17:00:00,
2017-07-20 13:01:00,86.0,76.7,30.06,SSW,198,6.0,6.0,74,0.00,,,0.00,Wunderground v.1.15,2017-07-20 17:01:00,
2017-07-20 13:06:00,86.3,77.0,30.06,SW,219,5.0,7.0,74,0.00,,,0.00,Wunderground v.1.15,2017-07-20 17:06:00,
2017-07-20 13:11:00,86.5,76.8,30.05,SW,226,4.0,11.0,73,0.00,,,0.00,Wunderground v.1.15,2017-07-20 17:11:00,
2017-07-20 13:16:00,87.0,77.7,30.05,SW,223,8.0,11.0,74,0.00,,,0.00,Wunderground v.1.15,2017-07-20 17:16:00,
2017-07-20 13:21:00,87.1,77.4,30.05,SW,234,6.0,7.0,73,0.00,,,0.00,Wunderground v.1.15,2017-07-20 17:21:00,
2017-07-20 13:26:00,86.9,76.8,30.05,WSW,239,6.0,10.0,72,0.00,,,0.00,Wunderground v.1.15,2017-07-20 17:26:00,
2017-07-20 13:31:00,87.1,77.4,30.04,SW,231,1.0,5.0,73,0.00,,,0.00,Wunderground v.1.15,2017-07-20 17:31:00,
2017-07-20 13:36:00,87.5,77.8,30.04,West,277,5.0,7.0,73,0.00,,,0.00,Wunderground v.1.15,2017-07-20 17:36:00,
2017-07-20 13:41:00,87.2,77.1,30.04,SW,233,3.0,9.0,72,0.00,,,0.00,Wunderground v.1.15,2017-07-20 17:41:00,
2017-07-20 13:46:00,87.2,77.5,30.04,SW,233,4.0,9.0,73,0.00,,,0.00,Wunderground v.1.15,2017-07-20 17:46:00,
2017-07-20 13:52:00,87.2,77.5,30.04,SW,214,10.0,10.0,73,0.00,,,0.00,Wunderground v.1.15,2017-07-20 17:52:00,
2017-07-20 13:57:00,86.7,77.4,30.04,SW,227,4.0,13.0,74,0.00,,,0.00,Wunderground v.1.15,2017-07-20 17:57:00,
2017-07-20 14:02:00,86.3,77.0,30.04,SW,221,5.0,9.0,74,0.00,,,0.00,Wunderground v.1.15,2017-07-20 18:02:00,
2017-07-20 14:07:00,86.2,77.3,30.04,West,261,1.0,9.0,75,0.00,,,0.00,Wunderground v.1.15,2017-07-20 18:07:00,
2017-07-20 14:12:00,85.9,77.5,30.03,WSW,254,4.0,6.0,76,0.00,,,0.00,Wunderground v.1.15,2017-07-20 18:12:00,
2017-07-20 14:17:00,85.3,77.3,30.02,South,186,3.0,7.0,77,0.00,,,0.00,Wunderground v.1.15,2017-07-20 18:17:00,
2017-07-20 14:22:00,84.7,77.5,30.01,East,87,1.0,3.0,79,0.00,,,0.00,Wunderground v.1.15,2017-07-20 18:22:00,
2017-07-20 14:27:00,84.4,78.3,30.00,SSE,153,0.0,3.0,82,0.00,,,0.01,Wunderground v.1.15,2017-07-20 18:27:00,
2017-07-20 14:32:00,83.8,78.1,29.99,SSE,153,0.0,1.0,83,0.00,,,0.01,Wunderground v.1.15,2017-07-20 18:32:00,
2017-07-20 14:37:00,83.4,78.4,29.99,SSE,153,0.0,1.0,85,0.00,,,0.01,Wunderground v.1.15,2017-07-20 18:37:00,
2017-07-20 14:42:00,83.0,78.4,29.99,SSE,153,0.0,0.0,86,0.00,,,0.01,Wunderground v.1.15,2017-07-20 18:42:00,
2017-07-20 14:47:00,83.0,79.1,29.99,SSE,153,0.0,0.0,88,0.00,,,0.01,Wunderground v.1.15,2017-07-20 18:47:00,
2017-07-20 14:52:00,83.0,79.4,29.98,SSE,153,0.0,0.0,89,0.00,,,0.01,Wunderground v.1.15,2017-07-20 18:52:00,
2017-07-20 14:57:00,83.0,79.8,29.98,ESE,109,0.0,2.0,90,0.00,,,0.01,Wunderground v.1.15,2017-07-20 18:57:00,
2017-07-20 15:02:00,83.0,79.8,29.98,SE,146,0.0,2.0,90,0.00,,,0.01,Wunderground v.1.15,2017-07-20 19:02:00,
2017-07-20 15:07:00,83.5,80.3,29.98,South,186,2.0,2.0,90,0.00,,,0.01,Wunderground v.1.15,2017-07-20 19:07:00,
2017-07-20 15:12:00,83.9,80.0,29.98,SW,221,2.0,3.0,88,0.00,,,0.01,Wunderground v.1.15,2017-07-20 19:12:00,
2017-07-20 15:17:00,84.6,79.9,29.97,SE,134,4.0,5.0,86,0.00,,,0.01,Wunderground v.1.15,2017-07-20 19:17:00,
2017-07-20 15:22:00,85.4,79.6,29.97,West,259,3.0,3.0,83,0.00,,,0.01,Wunderground v.1.15,2017-07-20 19:22:00,